sensor_id;sensor_type;location;lat;lon;timestamp;pressure;altitude;pressure_sealevel;temperature;humidity
73105;BME280;61296;50.526;30.792;2023-06-19T00:12:54;99312.38;;;22.51;50.79
73105;BME280;61296;50.526;30.792;2023-06-19T00:28:15;99321.34;;;22.27;51.99
73105;BME280;61296;50.526;30.792;2023-06-19T00:43:39;99248.31;;;21.59;52.82
73105;BME280;61296;50.526;30.792;2023-06-19T00:58:58;99207.47;;;21.18;53.67
73105;BME280;61296;50.526;30.792;2023-06-19T01:14:19;99269.16;;;21.58;54.47
73105;BME280;61296;50.526;30.792;2023-06-19T01:29:40;99225.88;;;21.07;54.39
73105;BME280;61296;50.526;30.792;2023-06-19T01:45:00;99306.72;;;21.36;54.64
73105;BME280;61296;50.526;30.792;2023-06-19T02:00:22;99256.16;;;21.08;53.91
73105;BME280;61296;50.526;30.792;2023-06-19T02:15:43;99268.72;;;21.25;53.33
73105;BME280;61296;50.526;30.792;2023-06-19T02:31:03;99225.41;;;21.08;52.03
73105;BME280;61296;50.526;30.792;2023-06-19T02:46:22;99245.47;;;20.94;52.81
73105;BME280;61296;50.526;30.792;2023-06-19T03:01:41;99261.59;;;20.90;53.93
73105;BME280;61296;50.526;30.792;2023-06-19T03:17:01;99233.00;;;20.73;53.55
73105;BME280;61296;50.526;30.792;2023-06-19T03:32:21;99227.84;;;20.84;52.83
73105;BME280;61296;50.526;30.792;2023-06-19T03:47:42;99322.56;;;21.51;52.56
73105;BME280;61296;50.526;30.792;2023-06-19T04:03:01;99229.44;;;20.72;54.21
73105;BME280;61296;50.526;30.792;2023-06-19T04:18:22;99256.72;;;20.68;55.23
73105;BME280;61296;50.526;30.792;2023-06-19T04:33:41;99316.06;;;21.20;54.76
73105;BME280;61296;50.526;30.792;2023-06-19T04:49:02;99268.38;;;21.01;54.25
73105;BME280;61296;50.526;30.792;2023-06-19T05:04:23;99260.47;;;20.87;54.97
73105;BME280;61296;50.526;30.792;2023-06-19T05:19:43;99319.94;;;21.57;54.75
73105;BME280;61296;50.526;30.792;2023-06-19T05:35:02;99244.16;;;21.42;55.05
73105;BME280;61296;50.526;30.792;2023-06-19T05:50:22;99271.28;;;22.07;53.42
73105;BME280;61296;50.526;30.792;2023-06-19T06:05:42;99337.00;;;22.96;52.53
73105;BME280;61296;50.526;30.792;2023-06-19T06:21:03;99265.81;;;23.02;48.87
73105;BME280;61296;50.526;30.792;2023-06-19T06:36:23;99371.34;;;23.92;47.41
73105;BME280;61296;50.526;30.792;2023-06-19T06:51:45;99340.41;;;24.10;43.18
73105;BME280;61296;50.526;30.792;2023-06-19T07:07:04;99381.03;;;24.60;43.05
73105;BME280;61296;50.526;30.792;2023-06-19T07:22:25;99326.97;;;25.76;40.76
73105;BME280;61296;50.526;30.792;2023-06-19T07:37:45;99269.91;;;26.40;36.28
73105;BME280;61296;50.526;30.792;2023-06-19T07:53:05;99309.34;;;26.90;34.14
73105;BME280;61296;50.526;30.792;2023-06-19T08:08:25;99302.88;;;27.50;32.62
73105;BME280;61296;50.526;30.792;2023-06-19T08:23:44;99396.94;;;28.03;32.37
73105;BME280;61296;50.526;30.792;2023-06-19T08:39:04;99326.47;;;27.94;31.36
73105;BME280;61296;50.526;30.792;2023-06-19T08:54:24;99382.47;;;29.86;29.21
73105;BME280;61296;50.526;30.792;2023-06-19T09:09:45;99360.25;;;28.34;31.57
73105;BME280;61296;50.526;30.792;2023-06-19T09:25:07;99332.66;;;27.72;32.17
73105;BME280;61296;50.526;30.792;2023-06-19T09:40:30;99348.06;;;27.50;33.13
73105;BME280;61296;50.526;30.792;2023-06-19T09:55:49;99378.88;;;28.21;32.93
73105;BME280;61296;50.526;30.792;2023-06-19T10:11:12;99279.06;;;28.09;31.77
73105;BME280;61296;50.526;30.792;2023-06-19T10:26:34;99367.84;;;28.49;32.75
73105;BME280;61296;50.526;30.792;2023-06-19T10:41:53;99298.06;;;27.77;32.92
73105;BME280;61296;50.526;30.792;2023-06-19T10:57:14;99306.50;;;28.29;31.49
73105;BME280;61296;50.526;30.792;2023-06-19T11:12:33;99288.75;;;28.28;30.99
73105;BME280;61296;50.526;30.792;2023-06-19T11:27:53;99339.19;;;28.09;32.67
73105;BME280;61296;50.526;30.792;2023-06-19T11:43:28;99333.00;;;27.79;30.83
73105;BME280;61296;50.526;30.792;2023-06-19T11:58:48;99247.16;;;27.25;30.78
73105;BME280;61296;50.526;30.792;2023-06-19T12:14:07;99226.41;;;27.54;30.94
73105;BME280;61296;50.526;30.792;2023-06-19T12:29:27;99212.69;;;27.99;29.61
73105;BME280;61296;50.526;30.792;2023-06-19T12:44:46;99206.06;;;28.07;28.16
73105;BME280;61296;50.526;30.792;2023-06-19T13:00:11;99200.22;;;27.79;27.18
73105;BME280;61296;50.526;30.792;2023-06-19T13:15:31;99236.84;;;28.31;25.63
73105;BME280;61296;50.526;30.792;2023-06-19T13:30:52;99217.22;;;28.22;26.88
73105;BME280;61296;50.526;30.792;2023-06-19T13:46:27;99233.34;;;28.48;26.61
73105;BME280;61296;50.526;30.792;2023-06-19T14:01:47;99193.91;;;28.33;26.26
73105;BME280;61296;50.526;30.792;2023-06-19T14:17:14;99172.47;;;28.15;27.89
73105;BME280;61296;50.526;30.792;2023-06-19T14:32:35;99145.03;;;27.52;29.18
73105;BME280;61296;50.526;30.792;2023-06-19T14:47:55;99196.81;;;28.07;28.86
73105;BME280;61296;50.526;30.792;2023-06-19T15:03:15;99140.09;;;27.79;29.33
73105;BME280;61296;50.526;30.792;2023-06-19T15:18:34;99243.50;;;28.28;28.51
73105;BME280;61296;50.526;30.792;2023-06-19T15:33:54;99227.84;;;27.96;30.06
73105;BME280;61296;50.526;30.792;2023-06-19T15:49:15;99164.22;;;27.48;29.81
73105;BME280;61296;50.526;30.792;2023-06-19T16:04:37;99280.16;;;28.17;29.31
73105;BME280;61296;50.526;30.792;2023-06-19T16:19:58;99227.47;;;27.56;30.04
73105;BME280;61296;50.526;30.792;2023-06-19T16:35:17;99300.31;;;27.99;30.41
73105;BME280;61296;50.526;30.792;2023-06-19T16:50:40;99189.97;;;27.04;31.37
73105;BME280;61296;50.526;30.792;2023-06-19T17:06:00;99234.31;;;27.24;32.38
73105;BME280;61296;50.526;30.792;2023-06-19T17:21:20;99249.38;;;27.15;33.50
73105;BME280;61296;50.526;30.792;2023-06-19T17:36:42;99286.72;;;27.04;33.56
73105;BME280;61296;50.526;30.792;2023-06-19T17:52:02;99255.53;;;26.23;34.14
73105;BME280;61296;50.526;30.792;2023-06-19T18:07:22;99277.63;;;26.10;34.92
73105;BME280;61296;50.526;30.792;2023-06-19T18:22:41;99303.09;;;24.85;40.69
73105;BME280;61296;50.526;30.792;2023-06-19T18:38:02;99369.59;;;24.64;43.07
73105;BME280;61296;50.526;30.792;2023-06-19T18:53:21;99352.16;;;23.90;45.18
73105;BME280;61296;50.526;30.792;2023-06-19T19:08:41;99340.63;;;23.15;47.26
73105;BME280;61296;50.526;30.792;2023-06-19T19:24:00;99390.25;;;22.87;49.27
73105;BME280;61296;50.526;30.792;2023-06-19T19:39:20;99346.38;;;22.00;52.27
73105;BME280;61296;50.526;30.792;2023-06-19T19:54:39;99387.94;;;21.79;55.21
73105;BME280;61296;50.526;30.792;2023-06-19T20:09:59;99373.88;;;21.36;57.57
73105;BME280;61296;50.526;30.792;2023-06-19T20:25:19;99323.19;;;20.99;58.81
73105;BME280;61296;50.526;30.792;2023-06-19T20:40:39;99347.34;;;20.80;59.98
73105;BME280;61296;50.526;30.792;2023-06-19T20:55:58;99346.81;;;20.85;60.98
73105;BME280;61296;50.526;30.792;2023-06-19T21:11:18;99369.41;;;20.65;62.15
73105;BME280;61296;50.526;30.792;2023-06-19T21:26:38;99296.75;;;20.02;62.94
73105;BME280;61296;50.526;30.792;2023-06-19T21:41:59;99355.47;;;20.11;63.74
73105;BME280;61296;50.526;30.792;2023-06-19T21:57:18;99379.38;;;20.12;64.94
73105;BME280;61296;50.526;30.792;2023-06-19T22:12:38;99380.22;;;19.96;65.36
73105;BME280;61296;50.526;30.792;2023-06-19T22:27:57;99348.03;;;19.50;66.75
73105;BME280;61296;50.526;30.792;2023-06-19T22:43:16;99402.41;;;19.87;67.15
73105;BME280;61296;50.526;30.792;2023-06-19T22:58:36;99349.66;;;19.64;66.97
73105;BME280;61296;50.526;30.792;2023-06-19T23:13:56;99281.25;;;18.85;69.00
73105;BME280;61296;50.526;30.792;2023-06-19T23:29:16;99341.22;;;19.06;69.77
73105;BME280;61296;50.526;30.792;2023-06-19T23:44:35;99303.13;;;18.86;69.83
73105;BME280;61296;50.526;30.792;2023-06-19T23:59:54;99330.72;;;18.81;70.34
